This is the latest recevied weather packets stored in our database for station/object PU2UHW-13. If no packets are shown the sender has not sent any weather packets the latest 10 day(s).
| Time | Temp. | Humidity | Pressure | Rain* | Wind** | Luminosity | Snow |
|---|---|---|---|---|---|---|---|
| 1788165627 | 61° F | 84% | 762.2 mmHg | - | - | - | - |
| 1788165448 | 61° F | 84% | 762.2 mmHg | - | - | - | - |
| 1788165267 | 61° F | 85% | 762.1 mmHg | - | - | - | - |
| 1788165087 | 61° F | 85% | 762.1 mmHg | - | - | - | - |
| 1788164908 | 61° F | 85% | 762 mmHg | - | - | - | - |
| 1788164728 | 60° F | 87% | 762.1 mmHg | - | - | - | - |
| 1788164547 | 61° F | 85% | 762 mmHg | - | - | - | - |
| 1788164367 | 61° F | 85% | 761.8 mmHg | - | - | - | - |
| 1788164187 | 59° F | 90% | 762.1 mmHg | - | - | - | - |
| 1788164007 | 60° F | 89% | 762.1 mmHg | - | - | - | - |
| 1788163827 | 60° F | 88% | 761.9 mmHg | - | - | - | - |
| 1788163647 | 60° F | 89% | 762.1 mmHg | - | - | - | - |
| 1788163467 | 59° F | 89% | 762.2 mmHg | - | - | - | - |
| 1788163287 | 59° F | 90% | 762.4 mmHg | - | - | - | - |
| 1788163107 | 59° F | 91% | 762.5 mmHg | - | - | - | - |
| 1788162927 | 61° F | 85% | 762.2 mmHg | - | - | - | - |
| 1788162747 | 60° F | 87% | 762.4 mmHg | - | - | - | - |
| 1788162568 | 60° F | 88% | 762.7 mmHg | - | - | - | - |
| 1788162387 | 61° F | 86% | 763 mmHg | - | - | - | - |
| 1788162208 | 60° F | 89% | 763.1 mmHg | - | - | - | - |
| 1788162027 | 60° F | 88% | 762.9 mmHg | - | - | - | - |
| 1788161847 | 61° F | 85% | 762.6 mmHg | - | - | - | - |
| 1788161667 | 61° F | 86% | 762.5 mmHg | - | - | - | - |
| 1788161487 | 61° F | 86% | 762.8 mmHg | - | - | - | - |
| 1788161307 | 60° F | 87% | 762.9 mmHg | - | - | - | - |
* Rain since midnight (hover to see other rain measurements)
** Current wind speed in m/s (hover to see current wind gust speed)